sensor_id;sensor_type;location;lat;lon;timestamp;P1;durP1;ratioP1;P2;durP2;ratioP2
56413;SDS011;42318;48.452;19.526;2022-08-05T00:04:20;1.50;;;1.40;;
56413;SDS011;42318;48.452;19.526;2022-08-05T00:11:51;1.60;;;1.30;;
56413;SDS011;42318;48.452;19.526;2022-08-05T00:19:22;1.53;;;1.40;;
56413;SDS011;42318;48.452;19.526;2022-08-05T00:26:52;1.53;;;1.43;;
56413;SDS011;42318;48.452;19.526;2022-08-05T00:34:23;1.43;;;1.33;;
56413;SDS011;42318;48.452;19.526;2022-08-05T00:41:54;1.63;;;1.50;;
56413;SDS011;42318;48.452;19.526;2022-08-05T00:49:24;1.80;;;1.50;;
56413;SDS011;42318;48.452;19.526;2022-08-05T00:56:55;1.67;;;1.43;;
56413;SDS011;42318;48.452;19.526;2022-08-05T01:04:26;1.83;;;1.27;;
56413;SDS011;42318;48.452;19.526;2022-08-05T01:11:58;1.37;;;1.27;;
56413;SDS011;42318;48.452;19.526;2022-08-05T01:35:21;1.40;;;1.30;;
56413;SDS011;42318;48.452;19.526;2022-08-05T01:42:56;1.45;;;1.20;;
56413;SDS011;42318;48.452;19.526;2022-08-05T01:50:32;1.60;;;1.40;;
56413;SDS011;42318;48.452;19.526;2022-08-05T01:58:07;1.60;;;1.50;;
56413;SDS011;42318;48.452;19.526;2022-08-05T02:05:40;1.63;;;1.50;;
56413;SDS011;42318;48.452;19.526;2022-08-05T02:13:16;1.60;;;1.50;;
56413;SDS011;42318;48.452;19.526;2022-08-05T02:20:53;1.80;;;1.50;;
56413;SDS011;42318;48.452;19.526;2022-08-05T02:28:29;1.40;;;1.30;;
56413;SDS011;42318;48.452;19.526;2022-08-05T02:36:04;1.52;;;1.42;;
56413;SDS011;42318;48.452;19.526;2022-08-05T02:43:39;1.50;;;1.20;;
56413;SDS011;42318;48.452;19.526;2022-08-05T02:51:11;1.45;;;1.35;;
56413;SDS011;42318;48.452;19.526;2022-08-05T02:58:44;1.33;;;1.23;;
56413;SDS011;42318;48.452;19.526;2022-08-05T03:06:17;1.23;;;1.10;;
56413;SDS011;42318;48.452;19.526;2022-08-05T03:13:49;1.50;;;1.30;;
56413;SDS011;42318;48.452;19.526;2022-08-05T03:21:21;1.27;;;1.10;;
56413;SDS011;42318;48.452;19.526;2022-08-05T03:28:52;1.53;;;1.10;;
56413;SDS011;42318;48.452;19.526;2022-08-05T03:36:23;1.45;;;1.35;;
56413;SDS011;42318;48.452;19.526;2022-08-05T03:43:54;1.38;;;1.27;;
56413;SDS011;42318;48.452;19.526;2022-08-05T03:52:09;1.60;;;1.30;;
56413;SDS011;42318;48.452;19.526;2022-08-05T03:59:32;1.48;;;1.17;;
56413;SDS011;42318;48.452;19.526;2022-08-05T04:07:05;1.67;;;1.30;;
56413;SDS011;42318;48.452;19.526;2022-08-05T04:14:37;1.60;;;1.50;;
56413;SDS011;42318;48.452;19.526;2022-08-05T04:22:08;1.77;;;1.20;;
56413;SDS011;42318;48.452;19.526;2022-08-05T04:29:40;1.40;;;1.17;;
56413;SDS011;42318;48.452;19.526;2022-08-05T04:37:11;1.40;;;1.30;;
56413;SDS011;42318;48.452;19.526;2022-08-05T04:44:42;1.43;;;1.30;;
56413;SDS011;42318;48.452;19.526;2022-08-05T04:52:13;1.43;;;1.23;;
56413;SDS011;42318;48.452;19.526;2022-08-05T04:59:44;1.53;;;1.37;;
56413;SDS011;42318;48.452;19.526;2022-08-05T05:07:15;1.20;;;1.10;;
56413;SDS011;42318;48.452;19.526;2022-08-05T05:22:17;1.63;;;1.17;;
56413;SDS011;42318;48.452;19.526;2022-08-05T05:29:48;1.30;;;1.10;;
56413;SDS011;42318;48.452;19.526;2022-08-05T05:37:19;1.83;;;1.50;;
56413;SDS011;42318;48.452;19.526;2022-08-05T05:44:49;1.27;;;1.00;;
56413;SDS011;42318;48.452;19.526;2022-08-05T05:52:22;1.53;;;1.00;;
56413;SDS011;42318;48.452;19.526;2022-08-05T05:59:53;1.15;;;1.05;;
56413;SDS011;42318;48.452;19.526;2022-08-05T06:07:24;1.60;;;1.50;;
56413;SDS011;42318;48.452;19.526;2022-08-05T06:14:55;2.20;;;1.20;;
56413;SDS011;42318;48.452;19.526;2022-08-05T06:22:27;1.60;;;1.33;;
56413;SDS011;42318;48.452;19.526;2022-08-05T06:29:59;1.75;;;1.40;;
56413;SDS011;42318;48.452;19.526;2022-08-05T06:37:30;1.43;;;1.20;;
56413;SDS011;42318;48.452;19.526;2022-08-05T06:45:00;1.30;;;1.17;;
56413;SDS011;42318;48.452;19.526;2022-08-05T06:52:31;1.80;;;1.60;;
56413;SDS011;42318;48.452;19.526;2022-08-05T07:00:02;1.30;;;1.20;;
56413;SDS011;42318;48.452;19.526;2022-08-05T07:07:34;1.60;;;1.20;;
56413;SDS011;42318;48.452;19.526;2022-08-05T07:15:05;1.87;;;1.10;;
56413;SDS011;42318;48.452;19.526;2022-08-05T07:22:54;1.40;;;1.10;;
56413;SDS011;42318;48.452;19.526;2022-08-05T07:30:25;1.50;;;1.40;;
56413;SDS011;42318;48.452;19.526;2022-08-05T07:37:56;1.53;;;1.37;;
56413;SDS011;42318;48.452;19.526;2022-08-05T07:45:27;2.03;;;1.35;;
56413;SDS011;42318;48.452;19.526;2022-08-05T07:52:57;2.22;;;1.33;;
56413;SDS011;42318;48.452;19.526;2022-08-05T08:00:28;1.27;;;1.17;;
56413;SDS011;42318;48.452;19.526;2022-08-05T08:07:59;1.20;;;1.10;;
56413;SDS011;42318;48.452;19.526;2022-08-05T08:15:30;2.13;;;1.30;;
56413;SDS011;42318;48.452;19.526;2022-08-05T08:23:01;1.60;;;1.50;;
56413;SDS011;42318;48.452;19.526;2022-08-05T08:30:36;1.45;;;1.35;;
56413;SDS011;42318;48.452;19.526;2022-08-05T08:38:07;1.80;;;1.50;;
56413;SDS011;42318;48.452;19.526;2022-08-05T08:45:38;1.60;;;1.20;;
56413;SDS011;42318;48.452;19.526;2022-08-05T08:53:10;2.95;;;1.30;;
56413;SDS011;42318;48.452;19.526;2022-08-05T09:00:44;1.42;;;1.30;;
56413;SDS011;42318;48.452;19.526;2022-08-05T09:08:16;1.63;;;1.30;;
56413;SDS011;42318;48.452;19.526;2022-08-05T09:15:48;1.33;;;1.00;;
56413;SDS011;42318;48.452;19.526;2022-08-05T09:23:20;1.50;;;1.20;;
56413;SDS011;42318;48.452;19.526;2022-08-05T09:30:55;1.50;;;1.23;;
56413;SDS011;42318;48.452;19.526;2022-08-05T09:38:28;1.10;;;1.00;;
56413;SDS011;42318;48.452;19.526;2022-08-05T09:45:59;1.20;;;1.00;;
56413;SDS011;42318;48.452;19.526;2022-08-05T09:53:41;1.30;;;1.20;;
56413;SDS011;42318;48.452;19.526;2022-08-05T10:01:19;1.45;;;1.35;;
56413;SDS011;42318;48.452;19.526;2022-08-05T10:08:50;1.20;;;1.10;;
56413;SDS011;42318;48.452;19.526;2022-08-05T10:16:28;1.20;;;1.10;;
56413;SDS011;42318;48.452;19.526;2022-08-05T10:24:01;1.83;;;1.20;;
56413;SDS011;42318;48.452;19.526;2022-08-05T10:31:32;1.10;;;1.00;;
56413;SDS011;42318;48.452;19.526;2022-08-05T10:39:11;1.20;;;1.10;;
56413;SDS011;42318;48.452;19.526;2022-08-05T10:46:47;1.38;;;1.25;;
56413;SDS011;42318;48.452;19.526;2022-08-05T10:54:24;0.93;;;0.90;;
56413;SDS011;42318;48.452;19.526;2022-08-05T11:02:14;1.30;;;1.20;;
56413;SDS011;42318;48.452;19.526;2022-08-05T11:40:58;1.27;;;1.15;;
56413;SDS011;42318;48.452;19.526;2022-08-05T11:48:32;1.20;;;1.10;;
56413;SDS011;42318;48.452;19.526;2022-08-05T11:56:03;1.60;;;1.10;;
56413;SDS011;42318;48.452;19.526;2022-08-05T12:03:41;1.77;;;1.07;;
56413;SDS011;42318;48.452;19.526;2022-08-05T12:11:26;1.33;;;1.23;;
56413;SDS011;42318;48.452;19.526;2022-08-05T12:18:58;1.10;;;1.00;;
56413;SDS011;42318;48.452;19.526;2022-08-05T12:26:29;1.10;;;1.00;;
56413;SDS011;42318;48.452;19.526;2022-08-05T12:34:05;1.00;;;0.90;;
56413;SDS011;42318;48.452;19.526;2022-08-05T12:41:38;1.00;;;0.90;;
56413;SDS011;42318;48.452;19.526;2022-08-05T12:49:11;1.30;;;1.13;;
56413;SDS011;42318;48.452;19.526;2022-08-05T12:56:46;2.47;;;1.40;;
56413;SDS011;42318;48.452;19.526;2022-08-05T13:04:21;1.40;;;1.25;;
56413;SDS011;42318;48.452;19.526;2022-08-05T13:11:55;1.50;;;1.40;;
56413;SDS011;42318;48.452;19.526;2022-08-05T13:19:34;1.45;;;1.15;;
56413;SDS011;42318;48.452;19.526;2022-08-05T13:27:05;2.13;;;1.40;;
56413;SDS011;42318;48.452;19.526;2022-08-05T13:34:36;1.67;;;1.40;;
56413;SDS011;42318;48.452;19.526;2022-08-05T13:42:07;3.00;;;1.90;;
56413;SDS011;42318;48.452;19.526;2022-08-05T13:49:38;17.38;;;13.10;;
56413;SDS011;42318;48.452;19.526;2022-08-05T13:57:10;22.37;;;15.27;;
56413;SDS011;42318;48.452;19.526;2022-08-05T14:12:31;16.92;;;12.43;;
56413;SDS011;42318;48.452;19.526;2022-08-05T14:20:03;16.83;;;11.80;;
56413;SDS011;42318;48.452;19.526;2022-08-05T14:27:35;16.08;;;12.05;;
56413;SDS011;42318;48.452;19.526;2022-08-05T14:35:06;15.83;;;10.87;;
56413;SDS011;42318;48.452;19.526;2022-08-05T14:42:37;16.37;;;11.50;;
56413;SDS011;42318;48.452;19.526;2022-08-05T14:50:10;14.63;;;10.55;;
56413;SDS011;42318;48.452;19.526;2022-08-05T14:57:41;14.13;;;10.77;;
56413;SDS011;42318;48.452;19.526;2022-08-05T15:05:12;14.07;;;10.13;;
56413;SDS011;42318;48.452;19.526;2022-08-05T15:12:43;12.70;;;8.90;;
56413;SDS011;42318;48.452;19.526;2022-08-05T15:20:14;12.13;;;8.77;;
56413;SDS011;42318;48.452;19.526;2022-08-05T15:27:45;11.87;;;9.93;;
56413;SDS011;42318;48.452;19.526;2022-08-05T15:35:15;11.60;;;8.87;;
56413;SDS011;42318;48.452;19.526;2022-08-05T15:42:47;11.57;;;8.13;;
56413;SDS011;42318;48.452;19.526;2022-08-05T15:50:18;9.80;;;7.45;;
56413;SDS011;42318;48.452;19.526;2022-08-05T15:57:49;10.93;;;8.00;;
56413;SDS011;42318;48.452;19.526;2022-08-05T16:05:19;11.40;;;7.90;;
56413;SDS011;42318;48.452;19.526;2022-08-05T16:12:50;13.50;;;6.97;;
56413;SDS011;42318;48.452;19.526;2022-08-05T16:20:21;10.33;;;7.23;;
56413;SDS011;42318;48.452;19.526;2022-08-05T16:27:52;7.70;;;6.33;;
56413;SDS011;42318;48.452;19.526;2022-08-05T16:35:22;7.13;;;6.00;;
56413;SDS011;42318;48.452;19.526;2022-08-05T16:42:54;11.15;;;6.55;;
56413;SDS011;42318;48.452;19.526;2022-08-05T16:50:24;8.60;;;5.70;;
56413;SDS011;42318;48.452;19.526;2022-08-05T16:57:55;6.93;;;6.00;;
56413;SDS011;42318;48.452;19.526;2022-08-05T17:05:26;8.50;;;5.93;;
56413;SDS011;42318;48.452;19.526;2022-08-05T17:12:57;8.93;;;5.70;;
56413;SDS011;42318;48.452;19.526;2022-08-05T17:20:27;7.00;;;5.23;;
56413;SDS011;42318;48.452;19.526;2022-08-05T17:27:58;8.43;;;5.50;;
56413;SDS011;42318;48.452;19.526;2022-08-05T17:35:29;6.87;;;5.30;;
56413;SDS011;42318;48.452;19.526;2022-08-05T17:43:00;7.30;;;5.30;;
56413;SDS011;42318;48.452;19.526;2022-08-05T17:50:31;9.23;;;5.67;;
56413;SDS011;42318;48.452;19.526;2022-08-05T17:58:02;6.80;;;5.47;;
56413;SDS011;42318;48.452;19.526;2022-08-05T18:05:32;7.40;;;5.50;;
56413;SDS011;42318;48.452;19.526;2022-08-05T18:13:04;5.65;;;5.00;;
56413;SDS011;42318;48.452;19.526;2022-08-05T18:20:35;7.70;;;4.87;;
56413;SDS011;42318;48.452;19.526;2022-08-05T18:28:06;6.57;;;5.30;;
56413;SDS011;42318;48.452;19.526;2022-08-05T18:35:37;5.90;;;5.23;;
56413;SDS011;42318;48.452;19.526;2022-08-05T18:43:07;7.70;;;5.47;;
56413;SDS011;42318;48.452;19.526;2022-08-05T18:50:39;7.07;;;5.13;;
56413;SDS011;42318;48.452;19.526;2022-08-05T18:58:28;8.00;;;5.00;;
56413;SDS011;42318;48.452;19.526;2022-08-05T19:05:59;7.00;;;5.40;;
56413;SDS011;42318;48.452;19.526;2022-08-05T19:13:30;6.00;;;4.87;;
56413;SDS011;42318;48.452;19.526;2022-08-05T19:21:01;8.50;;;5.47;;
56413;SDS011;42318;48.452;19.526;2022-08-05T19:28:32;8.83;;;4.80;;
56413;SDS011;42318;48.452;19.526;2022-08-05T19:36:04;6.93;;;5.03;;
56413;SDS011;42318;48.452;19.526;2022-08-05T19:43:35;7.73;;;5.67;;
56413;SDS011;42318;48.452;19.526;2022-08-05T19:51:07;9.60;;;5.63;;
56413;SDS011;42318;48.452;19.526;2022-08-05T19:58:37;11.03;;;4.77;;
56413;SDS011;42318;48.452;19.526;2022-08-05T20:06:08;5.83;;;4.43;;
56413;SDS011;42318;48.452;19.526;2022-08-05T20:13:39;5.67;;;3.90;;
56413;SDS011;42318;48.452;19.526;2022-08-05T20:21:10;7.10;;;4.20;;
56413;SDS011;42318;48.452;19.526;2022-08-05T20:28:40;5.33;;;3.57;;
56413;SDS011;42318;48.452;19.526;2022-08-05T20:43:43;7.07;;;3.25;;
56413;SDS011;42318;48.452;19.526;2022-08-05T20:51:14;4.97;;;3.73;;
56413;SDS011;42318;48.452;19.526;2022-08-05T20:58:45;4.00;;;3.57;;
56413;SDS011;42318;48.452;19.526;2022-08-05T21:06:16;5.97;;;3.57;;
56413;SDS011;42318;48.452;19.526;2022-08-05T21:13:47;4.22;;;3.53;;
56413;SDS011;42318;48.452;19.526;2022-08-05T21:21:18;3.47;;;3.17;;
56413;SDS011;42318;48.452;19.526;2022-08-05T21:28:49;3.40;;;3.10;;
56413;SDS011;42318;48.452;19.526;2022-08-05T21:36:20;10.03;;;3.27;;
56413;SDS011;42318;48.452;19.526;2022-08-05T21:43:51;5.57;;;2.72;;
56413;SDS011;42318;48.452;19.526;2022-08-05T21:51:22;4.67;;;3.27;;
56413;SDS011;42318;48.452;19.526;2022-08-05T21:58:52;4.37;;;3.17;;
56413;SDS011;42318;48.452;19.526;2022-08-05T22:06:23;3.40;;;2.77;;
56413;SDS011;42318;48.452;19.526;2022-08-05T22:13:54;3.97;;;3.17;;
56413;SDS011;42318;48.452;19.526;2022-08-05T22:21:25;3.70;;;3.40;;
56413;SDS011;42318;48.452;19.526;2022-08-05T22:28:56;3.57;;;3.27;;
56413;SDS011;42318;48.452;19.526;2022-08-05T22:36:26;4.87;;;3.07;;
56413;SDS011;42318;48.452;19.526;2022-08-05T22:43:57;4.53;;;3.33;;
56413;SDS011;42318;48.452;19.526;2022-08-05T22:51:28;4.80;;;3.57;;
56413;SDS011;42318;48.452;19.526;2022-08-05T22:58:59;3.73;;;3.30;;
56413;SDS011;42318;48.452;19.526;2022-08-05T23:06:30;3.17;;;2.87;;
56413;SDS011;42318;48.452;19.526;2022-08-05T23:14:01;3.20;;;2.90;;
56413;SDS011;42318;48.452;19.526;2022-08-05T23:21:31;5.53;;;3.50;;
56413;SDS011;42318;48.452;19.526;2022-08-05T23:29:02;3.80;;;3.27;;
56413;SDS011;42318;48.452;19.526;2022-08-05T23:36:34;3.40;;;3.07;;
56413;SDS011;42318;48.452;19.526;2022-08-05T23:44:05;5.22;;;3.78;;
56413;SDS011;42318;48.452;19.526;2022-08-05T23:51:36;3.63;;;3.27;;
56413;SDS011;42318;48.452;19.526;2022-08-05T23:59:26;4.55;;;3.92;;
